sensor_id;sensor_type;location;lat;lon;timestamp;pressure;altitude;pressure_sealevel;temperature;humidity
21273;BME280;36726;52.328;10.552;2022-08-16T00:02:22;99696.50;;;20.78;100.00
21273;BME280;36726;52.328;10.552;2022-08-16T00:04:49;99688.50;;;20.76;100.00
21273;BME280;36726;52.328;10.552;2022-08-16T00:07:16;99682.38;;;20.73;100.00
21273;BME280;36726;52.328;10.552;2022-08-16T00:09:43;99678.03;;;20.70;100.00
21273;BME280;36726;52.328;10.552;2022-08-16T00:12:11;99682.59;;;20.68;100.00
21273;BME280;36726;52.328;10.552;2022-08-16T00:14:43;99685.41;;;20.65;100.00
21273;BME280;36726;52.328;10.552;2022-08-16T00:17:10;99690.03;;;20.61;100.00
21273;BME280;36726;52.328;10.552;2022-08-16T00:19:45;99691.03;;;20.59;100.00
21273;BME280;36726;52.328;10.552;2022-08-16T00:22:14;99687.53;;;20.57;100.00
21273;BME280;36726;52.328;10.552;2022-08-16T00:24:44;99689.41;;;20.55;100.00
21273;BME280;36726;52.328;10.552;2022-08-16T00:27:13;99677.97;;;20.50;100.00
21273;BME280;36726;52.328;10.552;2022-08-16T00:29:40;99680.91;;;20.44;100.00
21273;BME280;36726;52.328;10.552;2022-08-16T00:32:07;99685.59;;;20.39;100.00
21273;BME280;36726;52.328;10.552;2022-08-16T00:34:36;99691.22;;;20.33;100.00
21273;BME280;36726;52.328;10.552;2022-08-16T00:37:20;99694.16;;;20.27;100.00
21273;BME280;36726;52.328;10.552;2022-08-16T00:39:51;99697.09;;;20.21;100.00
21273;BME280;36726;52.328;10.552;2022-08-16T00:42:23;99694.59;;;20.15;100.00
21273;BME280;36726;52.328;10.552;2022-08-16T00:45:08;99699.22;;;20.11;100.00
21273;BME280;36726;52.328;10.552;2022-08-16T00:47:41;99695.84;;;20.06;100.00
21273;BME280;36726;52.328;10.552;2022-08-16T00:50:19;99699.66;;;20.01;100.00
21273;BME280;36726;52.328;10.552;2022-08-16T00:53:02;99693.59;;;19.96;100.00
21273;BME280;36726;52.328;10.552;2022-08-16T00:55:29;99707.19;;;19.91;100.00
21273;BME280;36726;52.328;10.552;2022-08-16T00:58:03;99706.47;;;19.86;100.00
21273;BME280;36726;52.328;10.552;2022-08-16T01:00:43;99701.31;;;19.82;100.00
21273;BME280;36726;52.328;10.552;2022-08-16T01:03:22;99703.16;;;19.80;100.00
21273;BME280;36726;52.328;10.552;2022-08-16T01:06:01;99705.97;;;19.77;100.00
21273;BME280;36726;52.328;10.552;2022-08-16T01:08:50;99707.03;;;19.73;100.00
21273;BME280;36726;52.328;10.552;2022-08-16T01:11:18;99708.94;;;19.69;100.00
21273;BME280;36726;52.328;10.552;2022-08-16T01:13:46;99709.03;;;19.66;100.00
21273;BME280;36726;52.328;10.552;2022-08-16T01:16:21;99705.59;;;19.62;100.00
21273;BME280;36726;52.328;10.552;2022-08-16T01:19:25;99707.59;;;19.57;100.00
21273;BME280;36726;52.328;10.552;2022-08-16T01:25:20;99707.94;;;19.48;100.00
21273;BME280;36726;52.328;10.552;2022-08-16T01:28:01;99707.16;;;19.45;100.00
21273;BME280;36726;52.328;10.552;2022-08-16T01:30:33;99711.78;;;19.41;100.00
21273;BME280;36726;52.328;10.552;2022-08-16T01:33:06;99716.38;;;19.38;100.00
21273;BME280;36726;52.328;10.552;2022-08-16T01:36:16;99717.34;;;19.35;100.00
21273;BME280;36726;52.328;10.552;2022-08-16T01:38:41;99715.72;;;19.31;100.00
21273;BME280;36726;52.328;10.552;2022-08-16T01:41:21;99717.56;;;19.29;100.00
21273;BME280;36726;52.328;10.552;2022-08-16T01:43:50;99706.91;;;19.26;100.00
21273;BME280;36726;52.328;10.552;2022-08-16T01:46:29;99716.84;;;19.24;100.00
21273;BME280;36726;52.328;10.552;2022-08-16T01:49:17;99720.56;;;19.20;100.00
21273;BME280;36726;52.328;10.552;2022-08-16T01:51:49;99717.97;;;19.17;100.00
21273;BME280;36726;52.328;10.552;2022-08-16T01:54:23;99722.53;;;19.15;100.00
21273;BME280;36726;52.328;10.552;2022-08-16T01:56:56;99728.88;;;19.13;100.00
21273;BME280;36726;52.328;10.552;2022-08-16T01:59:24;99733.34;;;19.12;100.00
21273;BME280;36726;52.328;10.552;2022-08-16T02:01:53;99732.53;;;19.10;100.00
21273;BME280;36726;52.328;10.552;2022-08-16T02:04:28;99736.16;;;19.09;100.00
21273;BME280;36726;52.328;10.552;2022-08-16T02:07:16;99747.84;;;19.07;100.00
21273;BME280;36726;52.328;10.552;2022-08-16T02:09:48;99740.78;;;19.04;100.00
21273;BME280;36726;52.328;10.552;2022-08-16T02:12:33;99739.97;;;19.02;100.00
21273;BME280;36726;52.328;10.552;2022-08-16T02:15:24;99738.31;;;18.98;100.00
21273;BME280;36726;52.328;10.552;2022-08-16T02:17:56;99745.53;;;18.96;100.00
21273;BME280;36726;52.328;10.552;2022-08-16T02:20:24;99748.25;;;18.95;100.00
21273;BME280;36726;52.328;10.552;2022-08-16T02:22:58;99744.75;;;18.93;100.00
21273;BME280;36726;52.328;10.552;2022-08-16T02:25:25;99741.25;;;18.91;100.00
21273;BME280;36726;52.328;10.552;2022-08-16T02:28:13;99742.25;;;18.88;100.00
21273;BME280;36726;52.328;10.552;2022-08-16T02:30:44;99737.84;;;18.86;100.00
21273;BME280;36726;52.328;10.552;2022-08-16T02:33:17;99739.72;;;18.84;100.00
21273;BME280;36726;52.328;10.552;2022-08-16T02:35:44;99737.09;;;18.82;100.00
21273;BME280;36726;52.328;10.552;2022-08-16T02:38:24;99738.06;;;18.80;100.00
21273;BME280;36726;52.328;10.552;2022-08-16T02:40:52;99740.78;;;18.78;100.00
21273;BME280;36726;52.328;10.552;2022-08-16T02:43:20;99741.72;;;18.77;100.00
21273;BME280;36726;52.328;10.552;2022-08-16T02:45:54;99740.91;;;18.75;100.00
21273;BME280;36726;52.328;10.552;2022-08-16T02:48:22;99740.06;;;18.73;100.00
21273;BME280;36726;52.328;10.552;2022-08-16T02:50:58;99745.44;;;18.73;100.00
21273;BME280;36726;52.328;10.552;2022-08-16T02:53:42;99740.97;;;18.72;100.00
21273;BME280;36726;52.328;10.552;2022-08-16T02:56:12;99742.69;;;18.75;100.00
21273;BME280;36726;52.328;10.552;2022-08-16T02:58:42;99734.53;;;18.78;100.00
21273;BME280;36726;52.328;10.552;2022-08-16T03:01:12;99728.22;;;18.80;100.00
21273;BME280;36726;52.328;10.552;2022-08-16T03:03:52;99733.47;;;18.83;100.00
21273;BME280;36726;52.328;10.552;2022-08-16T03:06:39;99729.97;;;18.81;100.00
21273;BME280;36726;52.328;10.552;2022-08-16T03:09:18;99731.88;;;18.78;100.00
21273;BME280;36726;52.328;10.552;2022-08-16T03:11:50;99735.63;;;18.72;100.00
21273;BME280;36726;52.328;10.552;2022-08-16T03:14:17;99730.44;;;18.68;100.00
21273;BME280;36726;52.328;10.552;2022-08-16T03:16:50;99735.94;;;18.63;100.00
21273;BME280;36726;52.328;10.552;2022-08-16T03:19:32;99734.31;;;18.59;100.00
21273;BME280;36726;52.328;10.552;2022-08-16T03:22:20;99734.38;;;18.56;100.00
21273;BME280;36726;52.328;10.552;2022-08-16T03:25:06;99735.44;;;18.52;100.00
21273;BME280;36726;52.328;10.552;2022-08-16T03:27:34;99739.00;;;18.51;100.00
21273;BME280;36726;52.328;10.552;2022-08-16T03:30:13;99737.34;;;18.47;100.00
21273;BME280;36726;52.328;10.552;2022-08-16T03:32:46;99737.41;;;18.45;100.00
21273;BME280;36726;52.328;10.552;2022-08-16T03:35:21;99737.53;;;18.42;100.00
21273;BME280;36726;52.328;10.552;2022-08-16T03:37:53;99734.91;;;18.39;100.00
21273;BME280;36726;52.328;10.552;2022-08-16T03:40:34;99737.63;;;18.38;100.00
21273;BME280;36726;52.328;10.552;2022-08-16T03:43:04;99736.81;;;18.36;100.00
21273;BME280;36726;52.328;10.552;2022-08-16T03:45:51;99734.16;;;18.34;100.00
21273;BME280;36726;52.328;10.552;2022-08-16T03:48:24;99743.13;;;18.33;100.00
21273;BME280;36726;52.328;10.552;2022-08-16T03:51:10;99745.88;;;18.32;100.00
21273;BME280;36726;52.328;10.552;2022-08-16T03:53:49;99743.25;;;18.29;100.00
21273;BME280;36726;52.328;10.552;2022-08-16T03:56:29;99742.47;;;18.27;100.00
21273;BME280;36726;52.328;10.552;2022-08-16T03:58:58;99748.72;;;18.26;100.00
21273;BME280;36726;52.328;10.552;2022-08-16T04:01:29;99744.31;;;18.25;100.00
21273;BME280;36726;52.328;10.552;2022-08-16T04:03:57;99747.88;;;18.24;100.00
21273;BME280;36726;52.328;10.552;2022-08-16T04:06:25;99744.38;;;18.22;100.00
21273;BME280;36726;52.328;10.552;2022-08-16T04:08:52;99741.66;;;18.23;100.00
21273;BME280;36726;52.328;10.552;2022-08-16T04:11:19;99750.63;;;18.22;100.00
21273;BME280;36726;52.328;10.552;2022-08-16T04:13:50;99748.78;;;18.24;100.00
21273;BME280;36726;52.328;10.552;2022-08-16T04:16:40;99751.41;;;18.26;100.00
21273;BME280;36726;52.328;10.552;2022-08-16T04:19:24;99755.84;;;18.27;100.00
21273;BME280;36726;52.328;10.552;2022-08-16T04:21:57;99747.75;;;18.28;100.00
21273;BME280;36726;52.328;10.552;2022-08-16T04:24:30;99747.75;;;18.28;100.00
21273;BME280;36726;52.328;10.552;2022-08-16T04:26:57;99751.28;;;18.29;100.00
21273;BME280;36726;52.328;10.552;2022-08-16T04:29:25;99753.06;;;18.30;100.00
21273;BME280;36726;52.328;10.552;2022-08-16T04:32:10;99743.25;;;18.30;100.00
21273;BME280;36726;52.328;10.552;2022-08-16T04:34:39;99753.91;;;18.32;100.00
21273;BME280;36726;52.328;10.552;2022-08-16T04:37:07;99750.34;;;18.31;100.00
21273;BME280;36726;52.328;10.552;2022-08-16T04:39:38;99748.50;;;18.33;100.00
21273;BME280;36726;52.328;10.552;2022-08-16T04:42:20;99759.16;;;18.35;100.00
21273;BME280;36726;52.328;10.552;2022-08-16T04:44:55;99759.09;;;18.36;100.00
21273;BME280;36726;52.328;10.552;2022-08-16T04:47:28;99759.03;;;18.38;100.00
21273;BME280;36726;52.328;10.552;2022-08-16T04:50:17;99759.00;;;18.39;100.00
21273;BME280;36726;52.328;10.552;2022-08-16T04:53:10;99767.88;;;18.43;100.00
21273;BME280;36726;52.328;10.552;2022-08-16T04:55:42;99771.38;;;18.45;100.00
21273;BME280;36726;52.328;10.552;2022-08-16T04:58:11;99768.59;;;18.48;100.00
21273;BME280;36726;52.328;10.552;2022-08-16T05:00:59;99774.72;;;18.51;100.00
21273;BME280;36726;52.328;10.552;2022-08-16T05:03:29;99779.06;;;18.55;100.00
21273;BME280;36726;52.328;10.552;2022-08-16T05:05:56;99786.88;;;18.61;100.00
21273;BME280;36726;52.328;10.552;2022-08-16T05:08:31;99788.53;;;18.66;100.00
21273;BME280;36726;52.328;10.552;2022-08-16T05:11:16;99786.59;;;18.71;100.00
21273;BME280;36726;52.328;10.552;2022-08-16T05:13:46;99800.72;;;18.76;100.00
21273;BME280;36726;52.328;10.552;2022-08-16T05:16:24;99789.75;;;18.83;100.00
21273;BME280;36726;52.328;10.552;2022-08-16T05:19:03;99789.59;;;18.88;100.00
21273;BME280;36726;52.328;10.552;2022-08-16T05:21:39;99807.22;;;18.95;100.00
21273;BME280;36726;52.328;10.552;2022-08-16T05:24:08;99794.53;;;19.00;100.00
21273;BME280;36726;52.328;10.552;2022-08-16T05:26:37;99797.03;;;19.06;100.00
21273;BME280;36726;52.328;10.552;2022-08-16T05:29:15;99808.41;;;19.12;100.00
21273;BME280;36726;52.328;10.552;2022-08-16T05:31:58;99809.94;;;19.19;100.00
21273;BME280;36726;52.328;10.552;2022-08-16T05:34:27;99803.50;;;19.25;100.00
21273;BME280;36726;52.328;10.552;2022-08-16T05:36:54;99805.09;;;19.30;100.00
21273;BME280;36726;52.328;10.552;2022-08-16T05:39:29;99812.09;;;19.36;100.00
21273;BME280;36726;52.328;10.552;2022-08-16T05:41:58;99804.75;;;19.41;100.00
21273;BME280;36726;52.328;10.552;2022-08-16T05:44:25;99811.72;;;19.46;100.00
21273;BME280;36726;52.328;10.552;2022-08-16T05:46:58;99814.19;;;19.52;100.00
21273;BME280;36726;52.328;10.552;2022-08-16T05:49:29;99818.41;;;19.59;100.00
21273;BME280;36726;52.328;10.552;2022-08-16T05:52:07;99811.94;;;19.65;100.00
21273;BME280;36726;52.328;10.552;2022-08-16T05:54:40;99817.94;;;19.72;100.00
21273;BME280;36726;52.328;10.552;2022-08-16T05:57:15;99818.63;;;19.78;100.00
21273;BME280;36726;52.328;10.552;2022-08-16T05:59:43;99816.59;;;19.85;100.00
21273;BME280;36726;52.328;10.552;2022-08-16T06:02:13;99828.84;;;19.92;100.00
21273;BME280;36726;52.328;10.552;2022-08-16T06:04:42;99829.44;;;20.00;100.00
21273;BME280;36726;52.328;10.552;2022-08-16T06:07:14;99830.97;;;20.07;100.00
21273;BME280;36726;52.328;10.552;2022-08-16T06:10:16;99834.22;;;20.15;100.00
21273;BME280;36726;52.328;10.552;2022-08-16T06:13:00;99835.81;;;20.22;100.00
21273;BME280;36726;52.328;10.552;2022-08-16T06:15:27;99833.75;;;20.28;100.00
21273;BME280;36726;52.328;10.552;2022-08-16T06:17:56;99843.31;;;20.35;100.00
21273;BME280;36726;52.328;10.552;2022-08-16T06:20:27;99849.28;;;20.43;100.00
21273;BME280;36726;52.328;10.552;2022-08-16T06:23:08;99848.13;;;20.50;100.00
21273;BME280;36726;52.328;10.552;2022-08-16T06:25:55;99848.75;;;20.57;100.00
21273;BME280;36726;52.328;10.552;2022-08-16T06:28:25;99858.31;;;20.64;100.00
21273;BME280;36726;52.328;10.552;2022-08-16T06:31:05;99856.22;;;20.72;99.68
21273;BME280;36726;52.328;10.552;2022-08-16T06:33:37;99838.91;;;20.79;99.33
21273;BME280;36726;52.328;10.552;2022-08-16T06:36:08;99853.84;;;20.86;98.21
21273;BME280;36726;52.328;10.552;2022-08-16T06:38:37;99845.47;;;20.94;97.08
21273;BME280;36726;52.328;10.552;2022-08-16T06:41:28;99858.66;;;21.01;95.53
21273;BME280;36726;52.328;10.552;2022-08-16T06:44:08;99853.81;;;21.09;95.22
21273;BME280;36726;52.328;10.552;2022-08-16T06:46:48;99859.78;;;21.17;95.34
21273;BME280;36726;52.328;10.552;2022-08-16T06:49:17;99869.41;;;21.23;95.12
21273;BME280;36726;52.328;10.552;2022-08-16T06:51:44;99863.81;;;21.27;94.57
21273;BME280;36726;52.328;10.552;2022-08-16T06:54:14;99868.06;;;21.33;93.75
21273;BME280;36726;52.328;10.552;2022-08-16T06:56:41;99879.44;;;21.39;92.83
21273;BME280;36726;52.328;10.552;2022-08-16T06:59:12;99876.50;;;21.45;92.72
21273;BME280;36726;52.328;10.552;2022-08-16T07:01:46;99884.19;;;21.54;92.59
21273;BME280;36726;52.328;10.552;2022-08-16T07:04:20;99875.91;;;21.59;91.28
21273;BME280;36726;52.328;10.552;2022-08-16T07:07:02;99881.91;;;21.65;90.57
21273;BME280;36726;52.328;10.552;2022-08-16T07:09:31;99878.00;;;21.73;90.76
21273;BME280;36726;52.328;10.552;2022-08-16T07:11:58;99886.75;;;21.78;89.73
21273;BME280;36726;52.328;10.552;2022-08-16T07:14:31;99883.84;;;21.84;88.27
21273;BME280;36726;52.328;10.552;2022-08-16T07:17:00;99885.31;;;21.91;88.11
21273;BME280;36726;52.328;10.552;2022-08-16T07:19:28;99884.25;;;21.95;86.03
21273;BME280;36726;52.328;10.552;2022-08-16T07:22:20;99882.13;;;22.01;84.87
21273;BME280;36726;52.328;10.552;2022-08-16T07:25:18;99880.06;;;22.08;85.78
21273;BME280;36726;52.328;10.552;2022-08-16T07:27:48;99880.72;;;22.13;84.34
21273;BME280;36726;52.328;10.552;2022-08-16T07:30:19;99884.16;;;22.16;83.25
21273;BME280;36726;52.328;10.552;2022-08-16T07:33:08;99887.31;;;22.26;83.29
21273;BME280;36726;52.328;10.552;2022-08-16T07:35:41;99887.81;;;22.34;83.24
21273;BME280;36726;52.328;10.552;2022-08-16T07:38:15;99890.25;;;22.40;83.31
21273;BME280;36726;52.328;10.552;2022-08-16T07:40:55;99894.34;;;22.48;82.57
21273;BME280;36726;52.328;10.552;2022-08-16T07:43:28;99897.75;;;22.52;81.56
21273;BME280;36726;52.328;10.552;2022-08-16T07:45:59;99894.03;;;22.56;79.98
21273;BME280;36726;52.328;10.552;2022-08-16T07:48:29;99890.09;;;22.63;79.42
21273;BME280;36726;52.328;10.552;2022-08-16T07:50:56;99887.88;;;22.71;79.62
21273;BME280;36726;52.328;10.552;2022-08-16T07:53:29;99899.34;;;22.76;79.43
21273;BME280;36726;52.328;10.552;2022-08-16T07:55:57;99900.00;;;22.81;77.80
21273;BME280;36726;52.328;10.552;2022-08-16T07:58:31;99905.97;;;22.88;78.17
21273;BME280;36726;52.328;10.552;2022-08-16T08:01:07;99902.09;;;22.93;77.82
21273;BME280;36726;52.328;10.552;2022-08-16T08:03:42;99905.44;;;22.98;77.18
21273;BME280;36726;52.328;10.552;2022-08-16T08:06:23;99907.88;;;23.04;76.48
21273;BME280;36726;52.328;10.552;2022-08-16T08:08:52;99905.88;;;23.08;76.62
21273;BME280;36726;52.328;10.552;2022-08-16T08:11:26;99918.13;;;23.15;76.44
21273;BME280;36726;52.328;10.552;2022-08-16T08:13:56;99915.22;;;23.19;75.04
21273;BME280;36726;52.328;10.552;2022-08-16T08:16:31;99919.38;;;23.26;75.17
21273;BME280;36726;52.328;10.552;2022-08-16T08:18:59;99910.22;;;23.30;73.53
21273;BME280;36726;52.328;10.552;2022-08-16T08:21:31;99910.94;;;23.34;73.66
21273;BME280;36726;52.328;10.552;2022-08-16T08:24:20;99911.66;;;23.37;71.82
21273;BME280;36726;52.328;10.552;2022-08-16T08:26:57;99915.63;;;23.47;71.91
21273;BME280;36726;52.328;10.552;2022-08-16T08:29:24;99919.94;;;23.51;71.11
21273;BME280;36726;52.328;10.552;2022-08-16T08:32:05;99912.38;;;23.58;71.55
21273;BME280;36726;52.328;10.552;2022-08-16T08:34:55;99921.19;;;23.61;71.40
21273;BME280;36726;52.328;10.552;2022-08-16T08:37:32;99910.28;;;23.64;71.39
21273;BME280;36726;52.328;10.552;2022-08-16T08:40:19;99909.88;;;23.72;72.24
21273;BME280;36726;52.328;10.552;2022-08-16T08:42:50;99915.03;;;23.77;72.08
21273;BME280;36726;52.328;10.552;2022-08-16T08:45:23;99909.34;;;23.83;72.54
21273;BME280;36726;52.328;10.552;2022-08-16T08:48:13;99916.25;;;23.88;71.30
21273;BME280;36726;52.328;10.552;2022-08-16T08:51:06;99921.38;;;23.93;70.93
21273;BME280;36726;52.328;10.552;2022-08-16T08:53:45;99919.50;;;23.95;70.29
21273;BME280;36726;52.328;10.552;2022-08-16T08:56:25;99918.34;;;24.00;70.02
21273;BME280;36726;52.328;10.552;2022-08-16T08:59:05;99917.31;;;24.03;68.25
21273;BME280;36726;52.328;10.552;2022-08-16T09:01:45;99924.13;;;24.10;68.03
21273;BME280;36726;52.328;10.552;2022-08-16T09:04:25;99918.56;;;24.13;67.45
21273;BME280;36726;52.328;10.552;2022-08-16T09:06:54;99923.75;;;24.17;67.16
21273;BME280;36726;52.328;10.552;2022-08-16T09:09:23;99922.59;;;24.21;67.29
21273;BME280;36726;52.328;10.552;2022-08-16T09:11:59;99916.88;;;24.27;67.79
21273;BME280;36726;52.328;10.552;2022-08-16T09:14:53;99922.03;;;24.32;66.19
21273;BME280;36726;52.328;10.552;2022-08-16T09:17:22;99916.38;;;24.36;66.71
21273;BME280;36726;52.328;10.552;2022-08-16T09:20:12;99922.31;;;24.43;67.33
21273;BME280;36726;52.328;10.552;2022-08-16T09:22:42;99920.97;;;24.51;67.25
21273;BME280;36726;52.328;10.552;2022-08-16T09:25:16;99919.59;;;24.60;66.88
21273;BME280;36726;52.328;10.552;2022-08-16T09:27:51;99912.09;;;24.65;66.85
21273;BME280;36726;52.328;10.552;2022-08-16T09:30:25;99911.91;;;24.68;65.83
21273;BME280;36726;52.328;10.552;2022-08-16T09:33:04;99913.53;;;24.72;64.89
21273;BME280;36726;52.328;10.552;2022-08-16T09:35:35;99920.44;;;24.78;62.98
21273;BME280;36726;52.328;10.552;2022-08-16T09:38:04;99912.94;;;24.83;63.71
21273;BME280;36726;52.328;10.552;2022-08-16T09:40:35;99910.13;;;24.84;62.90
21273;BME280;36726;52.328;10.552;2022-08-16T09:43:09;99907.28;;;24.87;62.93
21273;BME280;36726;52.328;10.552;2022-08-16T09:45:56;99925.81;;;24.95;62.08
21273;BME280;36726;52.328;10.552;2022-08-16T09:48:23;99910.41;;;24.95;61.42
21273;BME280;36726;52.328;10.552;2022-08-16T09:51:11;99912.78;;;25.01;62.77
21273;BME280;36726;52.328;10.552;2022-08-16T09:53:38;99915.16;;;25.07;61.58
21273;BME280;36726;52.328;10.552;2022-08-16T09:56:27;99913.84;;;25.14;60.75
21273;BME280;36726;52.328;10.552;2022-08-16T09:58:58;99913.47;;;25.20;61.60
21273;BME280;36726;52.328;10.552;2022-08-16T10:01:34;99915.06;;;25.24;60.43
21273;BME280;36726;52.328;10.552;2022-08-16T10:04:02;99923.78;;;25.29;60.25
21273;BME280;36726;52.328;10.552;2022-08-16T10:06:51;99914.38;;;25.36;60.70
21273;BME280;36726;52.328;10.552;2022-08-16T10:09:19;99909.75;;;25.38;61.24
21273;BME280;36726;52.328;10.552;2022-08-16T10:11:45;99913.09;;;25.43;59.29
21273;BME280;36726;52.328;10.552;2022-08-16T10:14:37;99914.47;;;25.50;58.47
21273;BME280;36726;52.328;10.552;2022-08-16T10:17:11;99907.81;;;25.56;57.68
21273;BME280;36726;52.328;10.552;2022-08-16T10:19:38;99909.09;;;25.64;57.20
21273;BME280;36726;52.328;10.552;2022-08-16T10:22:04;99912.41;;;25.70;57.34
21273;BME280;36726;52.328;10.552;2022-08-16T10:24:32;99914.56;;;25.79;57.49
21273;BME280;36726;52.328;10.552;2022-08-16T10:26:59;99911.75;;;25.96;57.06
21273;BME280;36726;52.328;10.552;2022-08-16T10:29:46;99915.03;;;26.01;57.81
21273;BME280;36726;52.328;10.552;2022-08-16T10:32:32;99909.81;;;25.98;58.68
21273;BME280;36726;52.328;10.552;2022-08-16T10:35:00;99908.72;;;26.00;59.05
21273;BME280;36726;52.328;10.552;2022-08-16T10:37:29;99910.81;;;26.11;59.44
21273;BME280;36726;52.328;10.552;2022-08-16T10:40:04;99909.69;;;26.29;56.80
21273;BME280;36726;52.328;10.552;2022-08-16T10:42:53;99911.16;;;26.48;58.11
21273;BME280;36726;52.328;10.552;2022-08-16T10:45:19;99905.00;;;26.60;57.53
21273;BME280;36726;52.328;10.552;2022-08-16T10:47:48;99900.03;;;26.67;56.29
21273;BME280;36726;52.328;10.552;2022-08-16T10:50:30;99912.16;;;26.76;55.11
21273;BME280;36726;52.328;10.552;2022-08-16T10:52:59;99918.97;;;26.83;54.52
21273;BME280;36726;52.328;10.552;2022-08-16T10:55:33;99917.19;;;26.96;54.22
21273;BME280;36726;52.328;10.552;2022-08-16T10:58:11;99922.41;;;27.13;54.77
21273;BME280;36726;52.328;10.552;2022-08-16T11:00:39;99928.88;;;27.24;51.56
21273;BME280;36726;52.328;10.552;2022-08-16T11:03:06;99922.25;;;27.42;52.48
21273;BME280;36726;52.328;10.552;2022-08-16T11:05:53;99917.56;;;27.58;51.32
21273;BME280;36726;52.328;10.552;2022-08-16T11:08:34;99916.75;;;27.71;50.21
21273;BME280;36726;52.328;10.552;2022-08-16T11:11:06;99914.97;;;27.70;49.01
21273;BME280;36726;52.328;10.552;2022-08-16T11:13:43;99913.03;;;27.72;50.06
21273;BME280;36726;52.328;10.552;2022-08-16T11:16:32;99913.41;;;27.80;50.72
21273;BME280;36726;52.328;10.552;2022-08-16T11:19:18;99915.78;;;27.98;49.65
21273;BME280;36726;52.328;10.552;2022-08-16T11:21:48;99921.44;;;28.08;50.08
21273;BME280;36726;52.328;10.552;2022-08-16T11:24:35;99919.72;;;28.19;49.95
21273;BME280;36726;52.328;10.552;2022-08-16T11:27:19;99920.38;;;28.23;48.96
21273;BME280;36726;52.328;10.552;2022-08-16T11:29:53;99930.25;;;28.24;49.29
21273;BME280;36726;52.328;10.552;2022-08-16T11:32:24;99925.47;;;28.15;49.50
21273;BME280;36726;52.328;10.552;2022-08-16T11:34:59;99920.22;;;27.99;48.91
21273;BME280;36726;52.328;10.552;2022-08-16T11:37:43;99927.31;;;27.88;48.85
21273;BME280;36726;52.328;10.552;2022-08-16T11:40:38;99927.22;;;27.77;49.27
21273;BME280;36726;52.328;10.552;2022-08-16T11:43:09;99918.69;;;27.69;49.93
21273;BME280;36726;52.328;10.552;2022-08-16T11:45:36;99925.50;;;27.61;49.01
21273;BME280;36726;52.328;10.552;2022-08-16T11:48:04;99921.41;;;27.69;49.94
21273;BME280;36726;52.328;10.552;2022-08-16T11:50:32;99923.72;;;27.75;51.12
21273;BME280;36726;52.328;10.552;2022-08-16T11:53:03;99918.94;;;27.78;51.69
21273;BME280;36726;52.328;10.552;2022-08-16T11:55:34;99928.53;;;27.84;50.67
21273;BME280;36726;52.328;10.552;2022-08-16T11:58:05;99922.88;;;27.87;49.80
21273;BME280;36726;52.328;10.552;2022-08-16T12:00:32;99921.81;;;27.89;49.13
21273;BME280;36726;52.328;10.552;2022-08-16T12:03:18;99926.38;;;27.89;48.75
21273;BME280;36726;52.328;10.552;2022-08-16T12:05:58;99923.34;;;27.93;48.81
21273;BME280;36726;52.328;10.552;2022-08-16T12:08:25;99925.88;;;27.96;47.63
21273;BME280;36726;52.328;10.552;2022-08-16T12:10:52;99929.47;;;28.09;47.19
21273;BME280;36726;52.328;10.552;2022-08-16T12:13:25;99922.56;;;28.18;47.20
21273;BME280;36726;52.328;10.552;2022-08-16T12:15:52;99919.19;;;28.14;47.56
21273;BME280;36726;52.328;10.552;2022-08-16T12:18:18;99925.13;;;28.07;47.67
21273;BME280;36726;52.328;10.552;2022-08-16T12:20:46;99927.97;;;28.05;47.49
21273;BME280;36726;52.328;10.552;2022-08-16T12:23:14;99922.75;;;28.15;48.19
21273;BME280;36726;52.328;10.552;2022-08-16T12:25:42;99920.91;;;28.28;47.65
21273;BME280;36726;52.328;10.552;2022-08-16T12:28:09;99930.28;;;28.36;48.19
21273;BME280;36726;52.328;10.552;2022-08-16T12:30:39;99925.50;;;28.40;47.62
21273;BME280;36726;52.328;10.552;2022-08-16T12:33:08;99928.78;;;28.45;48.08
21273;BME280;36726;52.328;10.552;2022-08-16T12:35:38;99933.88;;;28.49;47.91
21273;BME280;36726;52.328;10.552;2022-08-16T12:38:06;99931.94;;;28.51;47.41
21273;BME280;36726;52.328;10.552;2022-08-16T12:40:52;99930.84;;;28.41;47.03
21273;BME280;36726;52.328;10.552;2022-08-16T12:43:23;99923.22;;;28.46;47.96
21273;BME280;36726;52.328;10.552;2022-08-16T12:45:52;99911.72;;;28.55;49.01
21273;BME280;36726;52.328;10.552;2022-08-16T12:48:24;99922.84;;;28.65;48.83
21273;BME280;36726;52.328;10.552;2022-08-16T12:51:15;99925.00;;;28.60;47.21
21273;BME280;36726;52.328;10.552;2022-08-16T12:53:52;99925.75;;;28.62;46.38
21273;BME280;36726;52.328;10.552;2022-08-16T12:56:24;99929.25;;;28.64;46.75
21273;BME280;36726;52.328;10.552;2022-08-16T12:58:53;99930.34;;;28.74;47.09
21273;BME280;36726;52.328;10.552;2022-08-16T13:01:26;99924.13;;;28.59;47.21
21273;BME280;36726;52.328;10.552;2022-08-16T13:03:55;99927.78;;;28.46;46.94
21273;BME280;36726;52.328;10.552;2022-08-16T13:06:42;99918.66;;;28.47;47.24
21273;BME280;36726;52.328;10.552;2022-08-16T13:09:10;99909.50;;;28.48;46.81
21273;BME280;36726;52.328;10.552;2022-08-16T13:14:32;99919.09;;;28.41;46.30
21273;BME280;36726;52.328;10.552;2022-08-16T13:17:02;99903.72;;;28.40;47.99
21273;BME280;36726;52.328;10.552;2022-08-16T13:19:33;99911.88;;;28.40;46.91
21273;BME280;36726;52.328;10.552;2022-08-16T13:22:20;99912.53;;;28.43;46.76
21273;BME280;36726;52.328;10.552;2022-08-16T13:24:47;99908.50;;;28.49;46.77
21273;BME280;36726;52.328;10.552;2022-08-16T13:27:16;99916.28;;;28.55;47.60
21273;BME280;36726;52.328;10.552;2022-08-16T13:29:43;99910.41;;;28.61;47.88
21273;BME280;36726;52.328;10.552;2022-08-16T13:32:15;99914.66;;;28.65;47.47